Time;durP1;ratioP1;P1;durP2;ratioP2;P2;SDS_P1;SDS_P2;PMS_P1;PMS_P2;Temp;Humidity;BMP_temperature;BMP_pressure;BME280_temperature;BME280_humidity;BME280_pressure;Samples;Min_cycle;Max_cycle;Signal;HPM_P1;HPM_P2
2023/07/05 00:01:13;;;;;;;9.77;4.95;;;;;;;15.06;100.00;92587.84;4940378;29;20040;-79
2023/07/05 00:03:40;;;;;;;11.65;4.90;;;;;;;15.09;100.00;92584.59;4936052;29;20039;-80
2023/07/05 00:06:06;;;;;;;7.90;4.80;;;;;;;15.11;100.00;92579.78;4939998;29;20098;-79
2023/07/05 00:08:32;;;;;;;8.88;4.68;;;;;;;15.14;100.00;92577.28;4939195;29;20063;-80
2023/07/05 00:11:05;;;;;;;10.80;5.10;;;;;;;15.17;100.00;92576.66;4938365;29;20059;-80
2023/07/05 00:13:30;;;;;;;9.23;4.75;;;;;;;15.15;100.00;92589.41;4936783;29;20051;-79
2023/07/05 00:15:56;;;;;;;11.52;4.75;;;;;;;15.06;100.00;92591.25;4940178;29;20039;-79
2023/07/05 00:18:21;;;;;;;7.65;4.45;;;;;;;14.95;100.00;92582.91;4923345;29;20081;-79
2023/07/05 00:20:47;;;;;;;9.23;5.05;;;;;;;14.91;100.00;92581.97;4936276;29;20043;-79
2023/07/05 00:23:13;;;;;;;10.23;4.50;;;;;;;14.92;100.00;92580.09;4939228;29;20028;-79
2023/07/05 00:25:38;;;;;;;10.10;5.55;;;;;;;14.91;100.00;92579.31;4934977;29;20624;-79
2023/07/05 00:28:04;;;;;;;11.02;5.07;;;;;;;14.88;100.00;92576.53;4921221;29;20043;-79
2023/07/05 00:30:29;;;;;;;10.98;5.20;;;;;;;14.84;100.00;92573.75;4923945;29;20331;-80
2023/07/05 00:32:55;;;;;;;13.13;5.32;;;;;;;14.83;100.00;92569.53;4938657;29;20051;-79
2023/07/05 00:35:20;;;;;;;14.23;5.88;;;;;;;14.80;100.00;92561.50;4937857;29;20032;-80
2023/07/05 00:37:46;;;;;;;11.75;5.82;;;;;;;14.82;100.00;92565.38;4938491;29;20046;-79
2023/07/05 00:40:12;;;;;;;9.15;5.07;;;;;;;14.75;100.00;92568.47;4938638;29;20040;-80
2023/07/05 00:42:38;;;;;;;10.70;5.82;;;;;;;14.75;100.00;92565.84;4939805;29;20043;-80
2023/07/05 00:45:10;;;;;;;10.10;4.93;;;;;;;14.72;100.00;92558.53;4931063;29;20063;-79
2023/07/05 00:47:37;;;;;;;12.60;5.68;;;;;;;14.69;100.00;92556.53;4921519;29;20047;-79
2023/07/05 00:50:16;;;;;;;12.80;5.43;;;;;;;14.66;100.00;92557.16;4919803;29;20036;-79
2023/07/05 00:52:42;;;;;;;10.90;5.53;;;;;;;14.63;100.00;92551.72;4932919;29;20383;-78
2023/07/05 00:55:09;;;;;;;9.68;5.30;;;;;;;14.65;100.00;92547.69;4936292;29;20039;-79
2023/07/05 00:57:37;;;;;;;12.73;6.43;;;;;;;14.64;100.00;92543.50;4937605;29;20244;-79
2023/07/05 01:00:08;;;;;;;19.02;6.55;;;;;;;14.58;100.00;92528.94;4954318;29;20019;-79
2023/07/05 01:02:39;;;;;;;10.97;6.10;;;;;;;14.58;100.00;92531.56;4940030;29;20375;-79
2023/07/05 01:05:07;;;;;;;13.35;6.40;;;;;;;14.57;100.00;92527.41;4952571;28;20442;-80
2023/07/05 01:07:33;;;;;;;13.50;6.03;;;;;;;14.55;100.00;92525.06;4938180;29;20042;-79
2023/07/05 01:09:58;;;;;;;15.32;6.97;;;;;;;14.51;100.00;92529.34;4938048;29;20518;-80
2023/07/05 01:12:35;;;;;;;12.93;6.47;;;;;;;14.47;100.00;92527.66;4938091;29;20055;-80
2023/07/05 01:15:06;;;;;;;16.95;6.35;;;;;;;14.47;100.00;92527.66;4937219;29;20039;-80
2023/07/05 01:18:17;;;;;;;13.23;6.57;;;;;;;14.48;100.00;92526.59;4925819;29;20060;-79
2023/07/05 01:20:57;;;;;;;17.23;7.55;;;;;;;14.50;100.00;92535.72;4935056;29;20119;-78
2023/07/05 01:23:41;;;;;;;12.45;6.80;;;;;;;14.50;100.00;92535.72;4933706;29;20447;-78
2023/07/05 01:26:25;;;;;;;16.67;6.75;;;;;;;14.48;100.00;92537.13;4946020;29;20074;-78
2023/07/05 01:29:10;;;;;;;15.85;7.15;;;;;;;14.44;100.00;92538.81;4937164;29;20047;-78
2023/07/05 01:31:50;;;;;;;14.07;7.47;;;;;;;14.41;100.00;92528.88;4937020;29;20105;-80
2023/07/05 01:34:42;;;;;;;13.38;6.68;;;;;;;14.36;100.00;92525.34;4937328;29;20039;-79
2023/07/05 01:37:10;;;;;;;13.50;6.38;;;;;;;14.34;100.00;92524.06;4923981;29;20028;-80
2023/07/05 01:39:36;;;;;;;10.25;6.03;;;;;;;14.31;100.00;92527.31;4918608;29;20040;-78
2023/07/05 01:42:03;;;;;;;12.43;6.53;;;;;;;14.30;100.00;92528.41;4920342;29;20032;-79
2023/07/05 01:44:30;;;;;;;12.70;6.82;;;;;;;14.23;100.00;92526.25;4926495;29;20474;-79
2023/07/05 01:47:15;;;;;;;15.93;6.93;;;;;;;14.24;100.00;92534.91;4951251;28;20036;-80
2023/07/05 01:50:00;;;;;;;12.82;6.63;;;;;;;14.22;100.00;92532.56;4951837;29;20047;-79
2023/07/05 01:52:47;;;;;;;12.50;6.22;;;;;;;14.11;100.00;92516.28;4938693;29;20039;-79
2023/07/05 01:55:24;;;;;;;13.60;6.10;;;;;;;14.11;100.00;92531.31;4935542;29;20040;-79
2023/07/05 01:58:07;;;;;;;12.40;6.25;;;;;;;14.08;100.00;92531.94;4935780;29;20032;-80
2023/07/05 02:00:33;;;;;;;;;;;;;;;14.11;100.00;92547.09;4917898;29;20028;-79
2023/07/05 02:03:07;;;;;;;13.40;6.43;;;;;;;14.07;100.00;92546.16;4934635;29;20324;-79
2023/07/05 02:05:33;;;;;;;12.90;6.60;;;;;;;14.06;100.00;92549.88;4926541;29;20494;-79
2023/07/05 02:07:59;;;;;;;15.65;6.78;;;;;;;14.11;100.00;92541.84;4923256;29;20046;-80
2023/07/05 02:10:26;;;;;;;16.73;6.72;;;;;;;14.20;100.00;92545.25;4926395;29;20047;-79
2023/07/05 02:12:53;;;;;;;13.95;6.97;;;;;;;14.19;100.00;92549.00;4929982;29;20565;-79
2023/07/05 02:15:20;;;;;;;14.10;6.18;;;;;;;14.21;100.00;92552.09;4951916;28;20028;-79
2023/07/05 02:17:46;;;;;;;15.32;6.80;;;;;;;14.20;100.00;92537.38;4936180;29;20039;-78
2023/07/05 02:20:13;;;;;;;12.32;6.35;;;;;;;14.25;100.00;92545.13;4950683;28;20039;-79
2023/07/05 02:22:39;;;;;;;13.95;6.53;;;;;;;14.29;100.00;92540.78;4933269;29;20103;-80
2023/07/05 02:25:05;;;;;;;14.52;6.53;;;;;;;14.31;100.00;92536.00;4935579;29;20035;-79
2023/07/05 02:27:31;;;;;;;13.05;6.50;;;;;;;14.32;100.00;92532.28;4932824;29;20502;-79
2023/07/05 02:29:57;;;;;;;13.77;6.88;;;;;;;14.31;100.00;92522.81;4919349;29;20044;-79
2023/07/05 02:32:24;;;;;;;13.77;6.65;;;;;;;14.32;100.00;92521.75;4919091;29;20740;-79
2023/07/05 02:34:50;;;;;;;13.07;6.88;;;;;;;14.30;100.00;92513.41;4920833;29;20398;-79
2023/07/05 02:37:16;;;;;;;12.38;6.20;;;;;;;14.31;100.00;92514.94;4950695;29;20079;-79
2023/07/05 02:39:42;;;;;;;13.88;6.57;;;;;;;14.34;100.00;92521.44;4919186;29;20077;-79
2023/07/05 02:42:08;;;;;;;16.33;6.53;;;;;;;14.32;100.00;92519.13;4937190;29;20043;-79
2023/07/05 02:44:34;;;;;;;15.30;7.10;;;;;;;14.32;100.00;92520.97;4936059;29;20313;-79
2023/07/05 02:47:00;;;;;;;13.73;6.75;;;;;;;14.29;100.00;92516.31;4936758;29;20036;-79
2023/07/05 02:49:26;;;;;;;17.25;6.68;;;;;;;14.30;100.00;92523.16;4937186;29;20054;-79
2023/07/05 02:51:54;;;;;;;13.93;6.93;;;;;;;14.34;100.00;92521.44;4934515;29;20114;-78
2023/07/05 02:54:20;;;;;;;17.33;7.65;;;;;;;14.39;100.00;92518.66;4936794;29;20333;-79
2023/07/05 02:56:45;;;;;;;13.25;6.80;;;;;;;14.35;100.00;92518.50;4932730;29;20071;-79
2023/07/05 02:59:11;;;;;;;18.33;7.40;;;;;;;14.36;100.00;92521.91;4937097;29;20032;-79
2023/07/05 03:01:37;;;;;;;19.75;7.22;;;;;;;14.36;100.00;92527.97;4935088;29;20034;-80
2023/07/05 03:04:02;;;;;;;15.90;7.10;;;;;;;14.40;100.00;92522.84;4918288;29;20459;-79
2023/07/05 03:06:28;;;;;;;15.13;7.20;;;;;;;14.42;100.00;92523.31;4931747;29;20043;-80
2023/07/05 03:08:54;;;;;;;16.77;7.00;;;;;;;14.45;100.00;92522.69;4935389;29;20027;-79
2023/07/05 03:11:19;;;;;;;13.82;6.80;;;;;;;14.52;100.00;92530.94;4937514;29;20060;-79
2023/07/05 03:13:46;;;;;;;14.63;7.32;;;;;;;14.56;100.00;92531.09;4936491;29;20038;-79
2023/07/05 03:16:12;;;;;;;16.83;7.28;;;;;;;14.56;100.00;92533.72;4934842;29;20039;-79
2023/07/05 03:18:37;;;;;;;19.85;7.70;;;;;;;14.60;100.00;92537.31;4935808;29;20044;-80
2023/07/05 03:21:03;;;;;;;14.23;6.97;;;;;;;14.60;100.00;92542.56;4935632;29;20040;-79
2023/07/05 03:23:29;;;;;;;15.65;7.15;;;;;;;14.57;100.00;92532.66;4929324;29;20043;-80
2023/07/05 03:25:57;;;;;;;18.90;7.72;;;;;;;14.60;100.00;92529.41;4922564;29;20040;-81
2023/07/05 03:28:24;;;;;;;13.65;6.63;;;;;;;14.62;100.00;92535.13;4938334;29;20544;-79
2023/07/05 03:31:01;;;;;;;16.98;7.57;;;;;;;14.61;100.00;92532.81;4955738;29;20051;-79
2023/07/05 03:33:29;;;;;;;14.90;7.00;;;;;;;14.59;100.00;92530.50;4952858;28;20079;-80
2023/07/05 03:35:59;;;;;;;18.92;7.40;;;;;;;14.57;100.00;92533.44;4921949;29;20027;-80
2023/07/05 03:38:27;;;;;;;16.27;7.15;;;;;;;14.57;100.00;92535.28;4939175;29;20043;-80
2023/07/05 03:41:04;;;;;;;14.13;6.68;;;;;;;14.56;100.00;92533.72;4939078;29;20131;-79
2023/07/05 03:43:37;;;;;;;14.57;6.78;;;;;;;14.54;100.00;92528.75;4937860;29;20032;-80
2023/07/05 03:46:10;;;;;;;17.90;7.20;;;;;;;14.55;100.00;92525.06;4936794;29;20040;-79
2023/07/05 03:48:38;;;;;;;15.60;7.30;;;;;;;14.57;100.00;92536.06;4937239;29;20123;-80
2023/07/05 03:51:04;;;;;;;14.35;7.88;;;;;;;14.59;100.00;92533.13;4939822;29;20046;-80
2023/07/05 03:53:33;;;;;;;14.88;7.68;;;;;;;14.59;100.00;92533.13;4938475;29;20406;-79
2023/07/05 03:56:04;;;;;;;13.77;6.68;;;;;;;14.57;100.00;92532.66;4945060;29;20043;-80
2023/07/05 03:58:30;;;;;;;15.65;6.97;;;;;;;14.58;100.00;92524.44;4937509;29;20040;-80
2023/07/05 04:01:18;;;;;;;18.30;7.55;;;;;;;14.58;100.00;92523.66;4954349;29;20047;-78
2023/07/05 04:03:46;;;;;;;19.55;7.28;;;;;;;14.60;100.00;92526.75;4932342;29;20435;-79
2023/07/05 04:06:13;;;;;;;13.52;6.68;;;;;;;14.62;100.00;92527.22;4934530;29;20039;-79
2023/07/05 04:08:41;;;;;;;15.40;7.25;;;;;;;14.64;100.00;92521.66;4938147;29;20028;-79
2023/07/05 04:11:08;;;;;;;18.35;7.28;;;;;;;14.66;100.00;92536.06;4963776;28;20051;-79
2023/07/05 04:13:33;;;;;;;18.05;7.78;;;;;;;14.66;100.00;92530.81;4953181;29;20067;-79
2023/07/05 04:16:10;;;;;;;16.17;7.07;;;;;;;14.68;100.00;92533.09;4956247;28;20446;-79
2023/07/05 04:18:37;;;;;;;19.08;7.50;;;;;;;14.70;100.00;92530.94;4958284;28;20101;-80
2023/07/05 04:21:03;;;;;;;14.43;7.05;;;;;;;14.69;100.00;92526.78;4959118;29;20043;-80
2023/07/05 04:23:29;;;;;;;14.70;7.45;;;;;;;14.75;100.00;92526.31;4958439;28;20035;-80
2023/07/05 04:26:00;;;;;;;15.27;7.38;;;;;;;14.78;100.00;92528.31;4950177;28;20114;-79
2023/07/05 04:28:25;;;;;;;14.95;6.60;;;;;;;14.80;100.00;92529.88;4950856;29;20039;-79
2023/07/05 04:30:51;;;;;;;14.88;6.88;;;;;;;14.78;100.00;92520.41;4957677;28;20051;-80
2023/07/05 04:33:17;;;;;;;14.02;6.50;;;;;;;14.83;100.00;92526.59;4947426;28;20416;-78
2023/07/05 04:35:46;;;;;;;15.68;6.72;;;;;;;14.84;100.00;92525.50;4954010;28;20039;-78
2023/07/05 04:38:13;;;;;;;12.65;6.25;;;;;;;14.83;100.00;92523.97;4957842;28;20098;-78
2023/07/05 04:40:38;;;;;;;13.40;6.82;;;;;;;14.83;100.00;92523.97;4953297;28;20031;-78
2023/07/05 04:43:04;;;;;;;22.75;7.00;;;;;;;14.80;100.00;92525.38;4955866;29;20035;-78
2023/07/05 04:45:30;;;;;;;14.63;6.68;;;;;;;14.83;100.00;92527.38;4956458;28;20098;-78
2023/07/05 04:47:55;;;;;;;18.17;6.93;;;;;;;14.83;100.00;92526.59;4952726;29;20122;-78
2023/07/05 04:50:21;;;;;;;16.80;6.63;;;;;;;14.84;100.00;92538.69;4948218;29;20379;-78
2023/07/05 04:52:46;;;;;;;14.70;6.90;;;;;;;14.82;100.00;92538.25;4948172;29;20175;-78
2023/07/05 04:55:12;;;;;;;15.68;6.78;;;;;;;14.83;100.00;92545.06;4957822;28;20070;-79
2023/07/05 04:57:37;;;;;;;12.90;6.32;;;;;;;14.83;100.00;92542.41;4951772;29;20039;-78
2023/07/05 05:00:03;;;;;;;15.48;6.22;;;;;;;14.90;100.00;92545.34;4954637;28;20019;-78
2023/07/05 05:02:29;;;;;;;13.18;5.85;;;;;;;14.88;100.00;92547.53;4959400;29;20054;-78
2023/07/05 05:04:55;;;;;;;20.98;6.35;;;;;;;14.91;100.00;92560.09;4957401;28;20035;-78
2023/07/05 05:07:20;;;;;;;12.98;6.05;;;;;;;14.91;100.00;92566.16;4956934;29;20047;-78
2023/07/05 05:09:46;;;;;;;16.73;6.47;;;;;;;14.91;100.00;92558.25;4956982;28;20043;-78
2023/07/05 05:12:11;;;;;;;12.77;6.25;;;;;;;14.94;100.00;92551.56;4953470;29;20091;-78
2023/07/05 05:14:37;;;;;;;15.65;6.30;;;;;;;14.99;100.00;92549.56;4955433;28;20043;-78
2023/07/05 05:17:03;;;;;;;13.57;5.80;;;;;;;15.06;100.00;92553.56;4956879;28;20027;-78
2023/07/05 05:19:28;;;;;;;14.15;6.22;;;;;;;15.11;100.00;92562.09;4955470;28;20062;-78
2023/07/05 05:21:54;;;;;;;14.35;6.20;;;;;;;15.16;100.00;92564.56;4956816;28;20039;-78
2023/07/05 05:24:19;;;;;;;11.88;5.70;;;;;;;15.21;100.00;92568.91;4956063;29;20067;-78
2023/07/05 05:26:46;;;;;;;12.48;5.47;;;;;;;15.24;100.00;92557.72;4957062;28;20050;-78
2023/07/05 05:29:13;;;;;;;11.40;5.80;;;;;;;15.32;100.00;92566.72;4954590;28;20481;-78
2023/07/05 05:31:39;;;;;;;15.45;6.38;;;;;;;15.37;100.00;92562.06;4957036;29;20059;-78
2023/07/05 05:34:04;;;;;;;15.20;6.70;;;;;;;15.47;100.00;92568.88;4958194;28;20123;-78
2023/07/05 05:36:30;;;;;;;16.10;6.40;;;;;;;15.55;100.00;92570.69;4957834;28;20059;-78
2023/07/05 05:38:55;;;;;;;16.10;6.18;;;;;;;15.64;100.00;92572.56;4958720;29;20040;-79
2023/07/05 05:41:21;;;;;;;14.32;6.15;;;;;;;15.73;100.00;92576.75;4939085;29;20074;-78
2023/07/05 05:43:50;;;;;;;15.13;6.63;;;;;;;15.88;100.00;92575.47;4941010;29;20502;-78
2023/07/05 05:46:16;;;;;;;15.23;6.80;;;;;;;15.98;100.00;92576.97;4958542;28;20414;-78
2023/07/05 05:48:42;;;;;;;16.52;6.00;;;;;;;15.99;100.00;92574.03;4958388;28;20039;-78
2023/07/05 05:51:08;;;;;;;12.40;6.28;;;;;;;15.87;100.00;92581.81;4943592;29;20039;-78
2023/07/05 05:53:33;;;;;;;15.68;5.72;;;;;;;15.89;100.00;92584.91;4936613;29;20043;-77
2023/07/05 05:55:59;;;;;;;13.35;5.95;;;;;;;15.92;100.00;92588.78;4935656;29;20401;-77
2023/07/05 05:58:25;;;;;;;18.42;6.20;;;;;;;15.94;100.00;92586.59;4950701;29;20038;-77
2023/07/05 06:00:51;;;;;;;15.15;6.45;;;;;;;15.99;100.00;92589.09;4952221;29;20059;-77
2023/07/05 06:03:17;;;;;;;19.88;6.72;;;;;;;16.06;100.00;92588.59;4954743;28;20050;-77
2023/07/05 06:05:42;;;;;;;16.83;6.65;;;;;;;16.13;100.00;92583.59;4972417;28;20026;-77
2023/07/05 06:08:08;;;;;;;15.80;7.30;;;;;;;16.21;100.00;92583.56;4952812;28;20059;-77
2023/07/05 06:10:34;;;;;;;21.42;7.00;;;;;;;16.32;100.00;92588.47;4968303;28;20054;-77
2023/07/05 06:13:00;;;;;;;11.50;6.50;;;;;;;16.40;100.00;92588.44;4948311;29;20062;-77
2023/07/05 06:15:26;;;;;;;19.73;7.47;;;;;;;16.69;100.00;92589.50;4949351;28;20584;-77
2023/07/05 06:17:53;;;;;;;13.38;6.40;;;;;;;16.85;100.00;92589.75;4955963;28;20035;-78
2023/07/05 06:20:19;;;;;;;14.93;7.00;;;;;;;16.92;100.00;92594.50;4951201;28;20023;-78
2023/07/05 06:22:44;;;;;;;19.02;7.20;;;;;;;16.99;100.00;92594.78;4955197;29;20353;-78
2023/07/05 06:25:10;;;;;;;18.55;6.65;;;;;;;17.04;100.00;92597.22;4953690;28;20027;-77
2023/07/05 06:27:36;;;;;;;17.88;6.80;;;;;;;17.09;100.00;92602.31;4954500;28;20047;-78
2023/07/05 06:30:03;;;;;;;17.30;6.80;;;;;;;17.15;100.00;92601.00;4951675;29;20074;-77
2023/07/05 06:32:29;;;;;;;20.48;6.85;;;;;;;17.24;100.00;92599.06;4950154;29;20042;-78
2023/07/05 06:34:55;;;;;;;14.93;6.65;;;;;;;17.62;100.00;92606.03;4953525;28;20066;-78
2023/07/05 06:37:21;;;;;;;23.48;6.88;;;;;;;17.47;100.00;92601.34;4953787;29;20074;-77
2023/07/05 06:39:47;;;;;;;19.15;6.28;;;;;;;17.50;100.00;92587.50;4954915;29;20147;-79
2023/07/05 06:42:13;;;;;;;13.90;6.53;;;;;;;17.88;100.00;92597.88;4956781;28;20553;-79
2023/07/05 06:44:42;;;;;;;15.63;6.15;;;;;;;18.21;100.00;92596.25;4957148;28;20035;-80
2023/07/05 06:47:07;;;;;;;13.52;6.10;;;;;;;18.46;100.00;92607.63;4955737;29;20054;-79
2023/07/05 06:49:33;;;;;;;120.88;11.57;;;;;;;18.31;100.00;92606.44;4956150;28;20046;-79
2023/07/05 06:51:59;;;;;;;14.85;5.47;;;;;;;18.21;100.00;92604.19;4937297;29;20383;-80
2023/07/05 06:54:24;;;;;;;16.35;7.22;;;;;;;17.98;100.00;92612.56;4938491;29;20542;-79
2023/07/05 06:56:50;;;;;;;17.77;7.05;;;;;;;17.76;100.00;92612.94;4937738;29;20046;-77
2023/07/05 06:59:15;;;;;;;19.25;6.18;;;;;;;17.57;100.00;92618.72;4938169;29;20031;-78
2023/07/05 07:01:42;;;;;;;16.50;6.88;;;;;;;17.47;100.00;92611.94;4937337;29;20368;-78
2023/07/05 07:04:08;;;;;;;18.40;6.45;;;;;;;17.59;100.00;92614.66;4936244;29;20078;-78
2023/07/05 07:06:33;;;;;;;14.82;6.32;;;;;;;17.73;100.00;92610.94;4936490;29;20122;-78
2023/07/05 07:09:03;;;;;;;14.27;6.28;;;;;;;17.86;100.00;92613.31;4935181;29;20028;-78
2023/07/05 07:11:29;;;;;;;22.70;5.85;;;;;;;18.02;100.00;92610.03;4940448;29;20039;-78
2023/07/05 07:13:54;;;;;;;13.52;5.95;;;;;;;18.06;100.00;92619.66;4952475;29;20039;-78
2023/07/05 07:16:20;;;;;;;14.93;5.82;;;;;;;18.20;100.00;92615.91;4937675;29;20027;-78
2023/07/05 07:18:47;;;;;;;17.05;5.43;;;;;;;18.34;100.00;92624.31;4937689;29;20043;-79
2023/07/05 07:21:16;;;;;;;12.32;5.55;;;;;;;18.48;100.00;92616.78;4936958;29;20075;-79
2023/07/05 07:23:44;;;;;;;10.35;4.93;;;;;;;18.73;100.00;92617.56;4937691;29;20031;-79
2023/07/05 07:26:16;;;;;;;11.18;5.00;;;;;;;18.66;100.00;92616.56;4961987;28;20524;-78
2023/07/05 07:28:45;;;;;;;16.15;5.78;;;;;;;18.71;100.00;92609.19;4955366;29;20078;-78
2023/07/05 07:31:32;;;;;;;10.77;4.85;;;;;;;18.71;100.00;92619.00;4956052;29;20039;-80
2023/07/05 07:34:02;;;;;;;14.43;6.72;;;;;;;18.75;100.00;92619.09;4946360;29;20119;-79
2023/07/05 07:36:30;;;;;;;10.48;5.20;;;;;;;18.62;100.00;92621.78;4948190;29;20055;-80
2023/07/05 07:38:57;;;;;;;15.82;6.05;;;;;;;18.51;100.00;92629.41;4958232;29;20031;-81
2023/07/05 07:41:29;;;;;;;16.33;5.13;;;;;;;18.46;100.00;92621.69;4964533;28;20046;-79
2023/07/05 07:43:57;;;;;;;13.48;5.35;;;;;;;18.57;100.00;92623.88;4948782;28;20057;-79
2023/07/05 07:46:25;;;;;;;10.07;4.32;;;;;;;18.69;100.00;92632.59;4962350;28;20027;-79
2023/07/05 07:48:55;;;;;;;12.35;4.97;;;;;;;18.68;100.00;92630.28;4952226;29;20031;-80
2023/07/05 07:51:26;;;;;;;15.45;5.03;;;;;;;18.23;100.00;92618.66;4962602;28;20389;-79
2023/07/05 07:53:52;;;;;;;15.25;5.07;;;;;;;18.27;100.00;92626.72;4957687;29;20083;-81
2023/07/05 07:56:20;;;;;;;10.20;4.07;;;;;;;18.38;100.00;92627.84;4961143;28;20039;-79
2023/07/05 07:58:52;;;;;;;16.55;4.75;;;;;;;18.74;100.00;92623.66;4957507;29;20035;-76
2023/07/05 08:01:19;;;;;;;11.32;4.43;;;;;;;18.75;100.00;92622.53;4959827;28;20103;-79
2023/07/05 08:03:45;;;;;;;10.05;4.05;;;;;;;19.06;100.00;92629.16;4964010;29;20035;-79
2023/07/05 08:06:12;;;;;;;9.82;5.00;;;;;;;19.16;100.00;92623.34;4964288;28;20054;-78
2023/07/05 08:08:39;;;;;;;10.80;4.68;;;;;;;19.35;100.00;92628.06;4963382;28;20067;-79
2023/07/05 08:11:07;;;;;;;13.82;4.68;;;;;;;19.34;100.00;92629.16;4978197;28;20067;-78
2023/07/05 08:13:32;;;;;;;12.45;4.68;;;;;;;19.49;100.00;92627.69;4953706;29;20028;-78
2023/07/05 08:15:58;;;;;;;18.92;4.68;;;;;;;19.75;100.00;92624.63;4947297;29;20046;-79
2023/07/05 08:18:25;;;;;;;11.55;4.43;;;;;;;19.94;100.00;92618.66;4958837;28;20094;-80
2023/07/05 08:20:51;;;;;;;8.98;4.50;;;;;;;19.95;100.00;92617.56;4964299;28;20032;-80
2023/07/05 08:23:17;;;;;;;12.68;4.85;;;;;;;20.02;100.00;92619.59;4959598;29;20043;-78
2023/07/05 08:25:43;;;;;;;13.98;5.32;;;;;;;20.08;100.00;92621.66;4944557;29;20048;-80
2023/07/05 08:28:13;;;;;;;11.63;4.55;;;;;;;20.08;100.00;92620.91;4964183;28;20064;-80
2023/07/05 08:30:39;;;;;;;13.43;4.75;;;;;;;20.18;100.00;92626.50;4965181;29;20107;-79
2023/07/05 08:33:06;;;;;;;14.80;5.15;;;;;;;20.08;100.00;92621.66;4962824;28;20047;-82
2023/07/05 08:35:32;;;;;;;12.00;5.43;;;;;;;20.39;100.00;92622.81;4967691;28;20102;-81
2023/07/05 08:37:59;;;;;;;12.70;5.10;;;;;;;20.43;100.00;92628.22;4965481;29;20074;-82
2023/07/05 08:40:33;;;;;;;16.00;4.88;;;;;;;20.47;100.00;92619.22;4951057;28;20027;-81
2023/07/05 08:43:05;;;;;;;11.48;4.30;;;;;;;20.37;100.00;92630.34;4961181;29;20111;-80
2023/07/05 08:45:38;;;;;;;12.93;5.35;;;;;;;20.37;100.00;92625.03;4961092;28;20050;-80
2023/07/05 08:48:06;;;;;;;15.50;5.22;;;;;;;20.46;100.00;92632.84;4940866;29;20028;-77
2023/07/05 08:50:37;;;;;;;11.15;4.40;;;;;;;20.58;100.00;92622.91;4955599;28;20039;-77
2023/07/05 08:53:09;;;;;;;10.57;5.10;;;;;;;20.63;100.00;92626.44;4954516;28;20465;-80
2023/07/05 08:55:42;;;;;;;9.38;4.00;;;;;;;20.78;100.00;92630.94;4962530;28;20268;-81
2023/07/05 08:58:10;;;;;;;10.23;5.00;;;;;;;20.56;100.00;92635.00;4965005;29;20035;-80
2023/07/05 09:01:05;;;;;;;15.15;4.78;;;;;;;20.65;100.00;92632.16;4962046;29;20035;-79
2023/07/05 09:03:32;;;;;;;8.25;4.57;;;;;;;20.28;100.00;92632.41;4964347;28;20046;-81
2023/07/05 09:06:08;;;;;;;11.25;4.72;;;;;;;20.44;100.00;92627.84;4963453;28;20039;-81
2023/07/05 09:09:01;;;;;;;15.68;5.13;;;;;;;20.61;100.00;92628.66;4962800;28;20067;-81
2023/07/05 09:11:30;;;;;;;12.57;5.07;;;;;;;20.83;100.00;92636.00;4944111;29;20059;-80
2023/07/05 09:14:42;;;;;;;12.60;4.43;;;;;;;20.96;100.00;92623.34;4941710;29;20142;-80
2023/07/05 09:17:28;;;;;;;11.43;4.82;;;;;;;20.72;100.00;92640.31;4919771;29;20043;-81
2023/07/05 09:20:05;;;;;;;12.63;5.38;;;;;;;20.73;100.00;92628.56;4949423;28;20027;-80
2023/07/05 09:22:36;;;;;;;12.57;6.25;;;;;;;21.03;100.00;92630.72;4959778;29;20049;-80
2023/07/05 09:25:05;;;;;;;14.63;5.20;;;;;;;21.27;100.00;92624.38;4957191;28;20035;-80
2023/07/05 09:27:40;;;;;;;12.40;5.07;;;;;;;21.21;100.00;92627.34;4955953;28;20028;-81
2023/07/05 09:30:13;;;;;;;11.75;5.00;;;;;;;21.37;100.00;92627.28;4963141;28;20048;-80
2023/07/05 09:32:42;;;;;;;8.45;4.38;;;;;;;21.41;100.00;92617.50;4960016;28;20043;-82
2023/07/05 09:35:15;;;;;;;11.57;4.03;;;;;;;21.31;100.00;92626.00;4954916;28;20579;-81
2023/07/05 09:38:05;;;;;;;9.65;4.72;;;;;;;21.14;100.00;92623.75;4959132;28;20031;-80
2023/07/05 09:40:38;;;;;;;11.43;4.93;;;;;;;21.23;100.00;92615.56;4915290;28;20043;-81
2023/07/05 09:43:22;;;;;;;9.95;4.75;;;;;;;21.33;100.00;92621.09;4959068;29;20038;-81
2023/07/05 09:45:47;;;;;;;7.97;4.25;;;;;;;21.40;100.00;92621.28;4958447;28;20595;-80
2023/07/05 09:48:15;;;;;;;9.18;4.60;;;;;;;21.39;100.00;92625.03;4957600;28;20054;-81
2023/07/05 09:50:49;;;;;;;7.25;3.38;;;;;;;21.51;100.00;92620.72;4959052;29;20035;-80
2023/07/05 09:53:33;;;;;;;11.35;4.65;;;;;;;21.29;100.00;92627.47;4954320;28;20047;-80
2023/07/05 09:56:09;;;;;;;10.25;4.80;;;;;;;21.55;100.00;92618.91;4958660;28;20034;-80
2023/07/05 09:58:36;;;;;;;7.55;3.95;;;;;;;21.50;100.00;92621.84;4956431;28;20094;-80
2023/07/05 10:01:06;;;;;;;12.07;5.00;;;;;;;21.39;100.00;92637.56;4957573;28;20038;-80
2023/07/05 10:03:37;;;;;;;11.23;4.28;;;;;;;21.45;100.00;92619.47;4956954;28;20066;-80
2023/07/05 10:06:07;;;;;;;13.40;4.80;;;;;;;21.54;100.00;92636.75;4959996;28;20505;-80
2023/07/05 10:08:53;;;;;;;9.05;4.95;;;;;;;21.56;100.00;92625.75;4960370;28;20054;-80
2023/07/05 10:11:27;;;;;;;8.35;4.32;;;;;;;21.78;100.00;92625.06;4959571;29;20059;-80
2023/07/05 10:14:20;;;;;;;15.00;4.68;;;;;;;21.26;100.00;92636.16;4956817;28;20043;-79
2023/07/05 10:17:04;;;;;;;13.50;4.80;;;;;;;21.04;100.00;92638.38;4960588;28;20043;-80
2023/07/05 10:19:32;;;;;;;14.05;4.90;;;;;;;21.24;100.00;92625.09;4959580;28;20115;-79
2023/07/05 10:22:12;;;;;;;12.68;4.32;;;;;;;21.41;100.00;92622.84;4957800;29;20030;-79
2023/07/05 10:24:48;;;;;;;11.73;4.50;;;;;;;21.51;100.00;92626.06;4956955;29;20144;-79
2023/07/05 10:27:36;;;;;;;12.00;4.32;;;;;;;21.78;100.00;92619.72;4940481;29;20058;-79
2023/07/05 10:30:13;;;;;;;12.60;4.80;;;;;;;21.88;100.00;92613.03;4940292;29;20133;-81
2023/07/05 10:32:45;;;;;;;8.02;4.32;;;;;;;21.93;100.00;92617.31;4957254;29;20035;-79
2023/07/05 10:35:31;;;;;;;11.05;4.40;;;;;;;21.76;100.00;92610.53;4957585;28;20086;-80
2023/07/05 10:37:57;;;;;;;9.18;4.28;;;;;;;21.97;100.00;92610.16;4957586;28;20445;-80
2023/07/05 10:40:23;;;;;;;10.75;5.13;;;;;;;22.17;100.00;92608.22;4956801;29;20059;-79
2023/07/05 10:42:57;;;;;;;11.70;4.93;;;;;;;22.30;100.00;92598.19;4956996;28;20043;-79
2023/07/05 10:45:34;;;;;;;9.38;4.25;;;;;;;22.06;100.00;92602.69;4958366;28;20031;-79
2023/07/05 10:48:01;;;;;;;8.48;4.60;;;;;;;21.47;100.00;92599.34;4954382;28;20039;-78
2023/07/05 10:50:33;;;;;;;9.30;3.97;;;;;;;21.83;100.00;92600.78;4969388;28;20118;-79
2023/07/05 10:53:26;;;;;;;9.23;4.38;;;;;;;21.90;100.00;92594.03;4958767;28;20098;-79
2023/07/05 10:56:16;;;;;;;9.90;4.70;;;;;;;21.63;100.00;92592.03;4955296;28;20058;-80
2023/07/05 10:58:54;;;;;;;9.18;4.30;;;;;;;21.48;100.00;92594.78;4952757;29;20031;-79
2023/07/05 11:01:24;;;;;;;18.95;4.32;;;;;;;22.12;100.00;92598.63;4950974;29;20130;-78
2023/07/05 11:04:11;;;;;;;10.75;4.75;;;;;;;21.71;100.00;92589.53;4954546;29;20031;-78
2023/07/05 11:06:40;;;;;;;5.90;2.90;;;;;;;22.16;98.48;92604.03;4952365;28;20136;-77
2023/07/05 11:09:08;;;;;;;9.23;3.67;;;;;;;22.11;88.40;92599.75;4954156;28;20198;-78
2023/07/05 11:11:44;;;;;;;6.97;3.63;;;;;;;22.36;92.90;92605.53;4953543;29;20055;-78
2023/07/05 11:14:13;;;;;;;9.30;3.70;;;;;;;22.31;87.88;92605.03;4953429;28;20455;-79
2023/07/05 11:16:42;;;;;;;7.63;3.80;;;;;;;22.57;82.05;92604.31;4942448;28;20534;-79
2023/07/05 11:19:16;;;;;;;8.30;3.50;;;;;;;22.23;89.83;92596.94;4952256;28;20043;-78
2023/07/05 11:21:46;;;;;;;11.55;3.95;;;;;;;22.41;89.78;92593.78;4951748;29;20486;-78
2023/07/05 11:24:33;;;;;;;12.07;4.15;;;;;;;22.88;100.00;92589.91;4949045;29;20055;-78
2023/07/05 11:27:00;;;;;;;11.20;4.05;;;;;;;22.81;92.60;92585.25;4969261;28;20441;-79
2023/07/05 11:29:28;;;;;;;9.20;3.83;;;;;;;22.95;90.70;92589.25;4955146;28;20587;-79
2023/07/05 11:31:53;;;;;;;14.40;3.95;;;;;;;22.92;93.45;92582.72;4956006;28;20039;-79